Kelley, Iowa
Current Conditions -  °F | °C
As of 7:53 PM on Friday 28 Nov 2014 (Local Time) from KAMW Reporting Station
Clear Clear  
Wind Chill: 22°   Ceiling: Unl
Heat Index: 27°   Visibility: 7mi
Dew Point: 24°   Wind: 5mph
Humidity: 89%   Direction: 70°ENE
Pressure: 29.74"   Gusts: NA
Location:  41.95°N, 93.67°W
Report Text: KAMW 290153Z AUTO 07004KT 7SM CLR M03/M04 A2974 RMK AO2 SLP080 T10281044
Loading
Personal Weather Stations






























Interactive Weather Map New forecast layout! Learn more

10-Day Weather Forecast

Advertisements
Track Severe Weather on mobile